Terminal Aerodrome Forecast
Issued by NWS

Home | Current Version | Previous Version | Graphics & Text | Print | Product List | Glossary On
Versions: 1 2 3 4 5 6 7 8 9 10 11 12 13 14 15 16 17 18 19 20 21 22
000
FTUS43 KGRB 192300
TAFCWA
TAF
KCWA 192323Z 2000/2024 21004KT P6SM SCT020 BKN080
      TEMPO 2000/2002 BKN018
     FM200200 18003KT 6SM BR BKN013
     FM200800 17003KT 4SM BR OVC006
     FM201700 16005KT 6SM BR OVC012
      AMD LTD TO CLD VIS AND WIND 2003/2011=

USA.gov is the U.S. government's official web portal to all federal, state and local government web resources and services.